Time;durP1;ratioP1;P1;durP2;ratioP2;P2;SDS_P1;SDS_P2;PMS_P1;PMS_P2;Temp;Humidity;BMP_temperature;BMP_pressure;BME280_temperature;BME280_humidity;BME280_pressure;Samples;Min_cycle;Max_cycle;Signal;HPM_P1;HPM_P2
2024/04/15 00:00:07;;;;;;;;;;;;;;;;;;376117;26;1171;-82
2024/04/15 00:00:17;;;;;;;;;;;;;;;;;;375951;26;1113;-82
2024/04/15 00:00:28;;;;;;;;;;;;;;;;;;373494;26;1593;-82
2024/04/15 00:00:38;;;;;;;;;;;;;;;;;;373468;26;936;-83
2024/04/15 00:00:48;;;;;;;;;;;;;;;;;;368881;26;862;-83
2024/04/15 00:00:58;;;;;;;;;;;;;;;;;;371150;26;1020;-83
2024/04/15 00:01:08;;;;;;;;;;;;;;;;;;371232;26;1067;-83
2024/04/15 00:01:19;;;;;;;;;;;;;;;;;;373574;26;1024;-83
2024/04/15 00:01:29;;;;;;;;;;;;;;;;;;372866;26;1564;-83
2024/04/15 00:01:39;;;;;;;;;;;;;;;;;;372642;26;1904;-83
2024/04/15 00:01:49;;;;;;;;;;;;;;;;;;370883;26;1217;-83
2024/04/15 00:01:59;;;;;;;;;;;;;;;;;;371292;26;1003;-83
2024/04/15 00:02:10;;;;;;;;;;;;;;;;;;373336;26;1325;-83
2024/04/15 00:02:20;;;;;;;;;;;;;;;;;;373531;26;1361;-83
2024/04/15 00:02:30;;;;;;;;;;;;;;;;;;373431;26;1050;-83
2024/04/15 00:02:40;;;;;;;;;;;;;;;;;;376105;26;1343;-83
2024/04/15 00:02:51;;;;;;;;;;;;;;;;;;375785;26;1571;-83
2024/04/15 00:03:01;;;;;;;;;;;;;;;;;;373536;26;1566;-83
2024/04/15 00:03:11;;;;;;;;;;;;;;;;;;373406;26;1363;-83
2024/04/15 00:03:21;;;;;;;;;;;;;;;;;;371005;26;1508;-83
2024/04/15 00:03:32;;;;;;;;;;;;;;;;;;370910;26;1821;-82
2024/04/15 00:03:42;;;;;;;;;;;;;;;;;;371112;26;1203;-83
2024/04/15 00:03:52;;;;;;;;;;;;;;;;;;371143;26;885;-82
2024/04/15 00:04:02;;;;;;;;;;;;;;;;;;371211;26;1019;-82
2024/04/15 00:04:13;;;;;;;;;;;;;;;;;;370878;26;1340;-83
2024/04/15 00:04:23;;;;;;;;;;;;;;;;;;371171;26;1219;-83
2024/04/15 00:04:33;;;;;;;;;;;;;;;;;;368438;26;1484;-83
2024/04/15 00:04:43;;;;;;;;;;;;;;;;;;373544;26;1260;-83
2024/04/15 00:04:54;;;;;;;;;;;;;;;;;;373265;26;1436;-83
2024/04/15 00:05:04;;;;;;;;;;;;;;;;;;373700;26;955;-83
2024/04/15 00:05:14;;;;;;;;;;;;;;;;;;373455;26;1016;-83
2024/04/15 00:05:24;;;;;;;;;;;;;;;;;;371178;26;855;-83
2024/04/15 00:05:37;;;;;;;;;;;;;;;;;;370940;26;1016;-82
2024/04/15 00:05:47;;;;;;;;;;;;;;;;;;371263;26;1007;-83
2024/04/15 00:05:57;;;;;;;;;;;;;;;;;;370977;26;992;-83
2024/04/15 00:06:07;;;;;;;;;;;;;;;;;;372987;26;1269;-83
2024/04/15 00:06:17;;;;;;;;;;;;;;;;;;373453;26;1028;-83
2024/04/15 00:06:28;;;;;;;;;;;;;;;;;;370955;26;1294;-83
2024/04/15 00:06:38;;;;;;;;;;;;;;;;;;371016;26;929;-83
2024/04/15 00:06:48;;;;;;;;;;;;;;;;;;373476;26;1188;-83
2024/04/15 00:06:58;;;;;;;;;;;;;;;;;;373466;26;833;-82
2024/04/15 00:07:09;;;;;;;;;;;;;;;;;;373671;26;1063;-83
2024/04/15 00:07:19;;;;;;;;;;;;;;;;;;374235;26;1043;-83
2024/04/15 00:07:29;;;;;;;;;;;;;;;;;;376135;26;1012;-83
2024/04/15 00:07:39;;;;;;;;;;;;;;;;;;375894;26;1027;-83
2024/04/15 00:07:50;;;;;;;;;;;;;;;;;;376232;26;1039;-83
2024/04/15 00:08:00;;;;;;;;;;;;;;;;;;375704;26;1281;-83
2024/04/15 00:08:10;;;;;;;;;;;;;;;;;;376607;26;706;-83
2024/04/15 00:08:20;;;;;;;;;;;;;;;;;;378899;26;1059;-83
2024/04/15 00:08:31;;;;;;;;;;;;;;;;;;381230;26;1019;-83
2024/04/15 00:08:41;;;;;;;;;;;;;;;;;;378370;26;1261;-83
2024/04/15 00:08:52;;;;;;;;;;;;;;;;;;376164;26;919;-83
2024/04/15 00:09:02;;;;;;;;;;;;;;;;;;375962;26;1011;-83
2024/04/15 00:09:12;;;;;;;;;;;;;;;;;;373441;26;1758;-83
2024/04/15 00:09:26;;;;;;;;;;;;;;;;;;373370;26;1541;-83
2024/04/15 00:09:36;;;;;;;;;;;;;;;;;;371063;26;1296;-83
2024/04/15 00:09:46;;;;;;;;;;;;;;;;;;370675;26;1274;-83
2024/04/15 00:09:56;;;;;;;;;;;;;;;;;;371293;26;1020;-83
2024/04/15 00:10:07;;;;;;;;;;;;;;;;;;371041;26;1015;-83
2024/04/15 00:10:17;;;;;;;;;;;;;;;;;;373757;26;702;-83
2024/04/15 00:10:27;;;;;;;;;;;;;;;;;;373432;26;996;-83
2024/04/15 00:10:38;;;;;;;;;;;;;;;;;;375998;26;1193;-83
2024/04/15 00:10:48;;;;;;;;;;;;;;;;;;375982;26;809;-83
2024/04/15 00:11:02;;;;;;;;;;;;;;;;;;376188;26;943;-83
2024/04/15 00:11:12;;;;;;;;;;;;;;;;;;375957;26;1000;-83
2024/04/15 00:11:22;;;;;;;;;;;;;;;;;;375670;26;1404;-83
2024/04/15 00:11:33;;;;;;;;;;;;;;;;;;370865;26;1248;-83
2024/04/15 00:11:45;;;;;;;;;;;;;;;;;;371195;26;1008;-84
2024/04/15 00:11:55;;;;;;;;;;;;;;;;;;370900;26;1242;-83
2024/04/15 00:12:05;;;;;;;;;;;;;;;;;;371074;26;1542;-83
2024/04/15 00:12:17;;;;;;;;;;;;;;;;;;368564;26;1059;-83
2024/04/15 00:12:27;;;;;;;;;;;;;;;;;;368769;26;1012;-83
2024/04/15 00:12:37;;;;;;;;;;;;;;;;;;368513;26;1242;-83
2024/04/15 00:12:51;;;;;;;;;;;;;;;;;;368743;26;996;-83
2024/04/15 00:13:01;;;;;;;;;;;;;;;;;;370897;26;1172;-83
2024/04/15 00:13:11;;;;;;;;;;;;;;;;;;370629;26;849;-83
2024/04/15 00:13:21;;;;;;;;;;;;;;;;;;371008;26;1031;-83
2024/04/15 00:13:32;;;;;;;;;;;;;;;;;;373670;26;1036;-83
2024/04/15 00:13:42;;;;;;;;;;;;;;;;;;373584;26;770;-83
2024/04/15 00:13:52;;;;;;;;;;;;;;;;;;371048;26;1339;-83
2024/04/15 00:14:03;;;;;;;;;;;;;;;;;;368412;26;1289;-83
2024/04/15 00:14:13;;;;;;;;;;;;;;;;;;368824;26;1000;-83
2024/04/15 00:14:23;;;;;;;;;;;;;;;;;;368579;26;967;-83
2024/04/15 00:14:33;;;;;;;;;;;;;;;;;;372084;26;1299;-83
2024/04/15 00:14:44;;;;;;;;;;;;;;;;;;373397;26;1032;-83
2024/04/15 00:14:54;;;;;;;;;;;;;;;;;;373785;26;916;-83
2024/04/15 00:15:04;;;;;;;;;;;;;;;;;;375782;26;1271;-83
2024/04/15 00:15:15;;;;;;;;;;;;;;;;;;373635;26;1144;-84
2024/04/15 00:15:25;;;;;;;;;;;;;;;;;;375979;26;892;-83
2024/04/15 00:15:35;;;;;;;;;;;;;;;;;;371085;26;1079;-83
2024/04/15 00:15:55;;;;;;;;;;;;;;;;;;370866;26;1241;-83
2024/04/15 00:16:09;;;;;;;;;;;;;;;;;;370921;26;1184;-83
2024/04/15 00:16:19;;;;;;;;;;;;;;;;;;368873;26;798;-83
2024/04/15 00:16:30;;;;;;;;;;;;;;;;;;367856;26;1959;-83
2024/04/15 00:16:40;;;;;;;;;;;;;;;;;;368836;26;1063;-83
2024/04/15 00:16:50;;;;;;;;;;;;;;;;;;370806;26;1004;-83
2024/04/15 00:17:00;;;;;;;;;;;;;;;;;;370834;26;1973;-83
2024/04/15 00:17:11;;;;;;;;;;;;;;;;;;371062;26;1032;-83
2024/04/15 00:17:21;;;;;;;;;;;;;;;;;;371261;26;1004;-83
2024/04/15 00:17:31;;;;;;;;;;;;;;;;;;370907;26;1197;-83
2024/04/15 00:17:41;;;;;;;;;;;;;;;;;;371232;26;1067;-83
2024/04/15 00:17:52;;;;;;;;;;;;;;;;;;370280;26;1188;-84
2024/04/15 00:18:02;;;;;;;;;;;;;;;;;;368601;26;1327;-83
2024/04/15 00:18:12;;;;;;;;;;;;;;;;;;368553;26;1047;-83
2024/04/15 00:18:23;;;;;;;;;;;;;;;;;;368738;26;1199;-83
2024/04/15 00:18:33;;;;;;;;;;;;;;;;;;368617;26;1043;-83
2024/04/15 00:18:43;;;;;;;;;;;;;;;;;;368629;26;1291;-83
2024/04/15 00:18:53;;;;;;;;;;;;;;;;;;368489;26;1250;-83
2024/04/15 00:19:03;;;;;;;;;;;;;;;;;;368819;26;1076;-83
2024/04/15 00:19:14;;;;;;;;;;;;;;;;;;368514;26;1000;-83
2024/04/15 00:19:26;;;;;;;;;;;;;;;;;;371761;26;1184;-83
2024/04/15 00:19:37;;;;;;;;;;;;;;;;;;370947;26;1386;-83
2024/04/15 00:19:47;;;;;;;;;;;;;;;;;;373514;26;1242;-83
2024/04/15 00:19:57;;;;;;;;;;;;;;;;;;373476;26;806;-83
2024/04/15 00:20:07;;;;;;;;;;;;;;;;;;370977;26;790;-83
2024/04/15 00:20:17;;;;;;;;;;;;;;;;;;370540;26;1051;-83
2024/04/15 00:20:29;;;;;;;;;;;;;;;;;;371133;26;1218;-83
2024/04/15 00:20:39;;;;;;;;;;;;;;;;;;371004;26;1062;-84
2024/04/15 00:20:56;;;;;;;;;;;;;;;;;;371205;26;1015;-83
2024/04/15 00:21:10;;;;;;;;;;;;;;;;;;368523;26;1294;-83
2024/04/15 00:21:20;;;;;;;;;;;;;;;;;;370808;26;1302;-83
2024/04/15 00:21:30;;;;;;;;;;;;;;;;;;371158;26;1210;-83
2024/04/15 00:21:41;;;;;;;;;;;;;;;;;;371087;26;1067;-83
2024/04/15 00:21:51;;;;;;;;;;;;;;;;;;368677;26;1190;-83
2024/04/15 00:22:01;;;;;;;;;;;;;;;;;;368606;26;1016;-83
2024/04/15 00:22:12;;;;;;;;;;;;;;;;;;368566;26;1226;-83
2024/04/15 00:22:22;;;;;;;;;;;;;;;;;;368574;26;1037;-83
2024/04/15 00:22:32;;;;;;;;;;;;;;;;;;373538;26;1249;-84
2024/04/15 00:22:43;;;;;;;;;;;;;;;;;;374898;26;1283;-83
2024/04/15 00:22:53;;;;;;;;;;;;;;;;;;376145;26;784;-83
2024/04/15 00:23:03;;;;;;;;;;;;;;;;;;370873;26;1419;-83
2024/04/15 00:23:14;;;;;;;;;;;;;;;;;;371266;26;1000;-83
2024/04/15 00:23:24;;;;;;;;;;;;;;;;;;370994;26;1008;-83
2024/04/15 00:23:34;;;;;;;;;;;;;;;;;;373232;26;1840;-83
2024/04/15 00:23:44;;;;;;;;;;;;;;;;;;373394;26;1016;-83
2024/04/15 00:23:55;;;;;;;;;;;;;;;;;;373598;26;1240;-83
2024/04/15 00:24:05;;;;;;;;;;;;;;;;;;370898;26;1298;-83
2024/04/15 00:24:15;;;;;;;;;;;;;;;;;;371032;26;1384;-83
2024/04/15 00:24:25;;;;;;;;;;;;;;;;;;370944;26;1233;-83
2024/04/15 00:24:35;;;;;;;;;;;;;;;;;;371089;26;1040;-84
2024/04/15 00:24:46;;;;;;;;;;;;;;;;;;371044;26;1218;-84
2024/04/15 00:24:56;;;;;;;;;;;;;;;;;;371094;26;941;-84
2024/04/15 00:25:06;;;;;;;;;;;;;;;;;;373465;26;1543;-84
2024/04/15 00:25:16;;;;;;;;;;;;;;;;;;370900;26;1196;-84
2024/04/15 00:25:27;;;;;;;;;;;;;;;;;;371122;26;1276;-84
2024/04/15 00:25:37;;;;;;;;;;;;;;;;;;370956;26;1031;-84
2024/04/15 00:25:47;;;;;;;;;;;;;;;;;;371219;26;1012;-84
2024/04/15 00:25:58;;;;;;;;;;;;;;;;;;370096;26;1326;-83
2024/04/15 00:26:08;;;;;;;;;;;;;;;;;;371281;26;984;-83
2024/04/15 00:26:18;;;;;;;;;;;;;;;;;;370904;26;1035;-83
2024/04/15 00:26:28;;;;;;;;;;;;;;;;;;373576;26;1220;-83
2024/04/15 00:26:39;;;;;;;;;;;;;;;;;;373371;26;1288;-83
2024/04/15 00:26:49;;;;;;;;;;;;;;;;;;371036;26;1531;-84
2024/04/15 00:26:59;;;;;;;;;;;;;;;;;;371004;26;1008;-84
2024/04/15 00:27:09;;;;;;;;;;;;;;;;;;371051;26;1028;-82
2024/04/15 00:27:20;;;;;;;;;;;;;;;;;;370508;26;1217;-84
2024/04/15 00:27:30;;;;;;;;;;;;;;;;;;371224;26;802;-84
2024/04/15 00:27:40;;;;;;;;;;;;;;;;;;372765;26;1307;-83
2024/04/15 00:27:50;;;;;;;;;;;;;;;;;;373707;26;1043;-84
2024/04/15 00:28:00;;;;;;;;;;;;;;;;;;370891;26;1413;-84
2024/04/15 00:28:11;;;;;;;;;;;;;;;;;;371285;26;1071;-84
2024/04/15 00:28:21;;;;;;;;;;;;;;;;;;370915;26;908;-84
2024/04/15 00:28:32;;;;;;;;;;;;;;;;;;371228;26;976;-83
2024/04/15 00:28:42;;;;;;;;;;;;;;;;;;370857;26;1058;-83
2024/04/15 00:28:52;;;;;;;;;;;;;;;;;;371199;26;1027;-84
2024/04/15 00:29:02;;;;;;;;;;;;;;;;;;373258;26;1216;-83
2024/04/15 00:29:13;;;;;;;;;;;;;;;;;;369319;26;1297;-83
2024/04/15 00:29:23;;;;;;;;;;;;;;;;;;370932;26;1054;-83
2024/04/15 00:29:33;;;;;;;;;;;;;;;;;;371104;26;1230;-84
2024/04/15 00:29:44;;;;;;;;;;;;;;;;;;371029;26;754;-84
2024/04/15 00:29:54;;;;;;;;;;;;;;;;;;371221;26;936;-84
2024/04/15 00:30:05;;;;;;;;;;;;;;;;;;370949;26;1004;-84
2024/04/15 00:30:15;;;;;;;;;;;;;;;;;;373653;26;988;-84
2024/04/15 00:30:26;;;;;;;;;;;;;;;;;;373409;26;1131;-83
2024/04/15 00:30:36;;;;;;;;;;;;;;;;;;373641;26;960;-84
2024/04/15 00:30:48;;;;;;;;;;;;;;;;;;373518;26;1270;-84
2024/04/15 00:30:58;;;;;;;;;;;;;;;;;;373527;26;1439;-84
2024/04/15 00:31:09;;;;;;;;;;;;;;;;;;372749;26;1895;-83
2024/04/15 00:31:19;;;;;;;;;;;;;;;;;;373489;26;1111;-84
2024/04/15 00:31:29;;;;;;;;;;;;;;;;;;373323;26;1286;-83
2024/04/15 00:31:39;;;;;;;;;;;;;;;;;;373340;26;1867;-83
2024/04/15 00:31:49;;;;;;;;;;;;;;;;;;370936;26;1332;-84
2024/04/15 00:31:59;;;;;;;;;;;;;;;;;;371103;26;1206;-84
2024/04/15 00:32:10;;;;;;;;;;;;;;;;;;370998;26;750;-84
2024/04/15 00:32:20;;;;;;;;;;;;;;;;;;371229;26;1027;-84
2024/04/15 00:32:30;;;;;;;;;;;;;;;;;;372063;26;1164;-86
2024/04/15 00:32:40;;;;;;;;;;;;;;;;;;373601;26;1030;-84
2024/04/15 00:32:51;;;;;;;;;;;;;;;;;;373423;26;1253;-84
2024/04/15 00:33:01;;;;;;;;;;;;;;;;;;373593;26;1272;-84
2024/04/15 00:33:11;;;;;;;;;;;;;;;;;;371373;26;1661;-84
2024/04/15 00:33:21;;;;;;;;;;;;;;;;;;371211;26;1069;-85
2024/04/15 00:33:31;;;;;;;;;;;;;;;;;;371067;26;887;-83
2024/04/15 00:33:45;;;;;;;;;;;;;;;;;;373780;26;801;-85
2024/04/15 00:33:56;;;;;;;;;;;;;;;;;;373417;26;1031;-84
2024/04/15 00:34:06;;;;;;;;;;;;;;;;;;377187;26;1384;-85
2024/04/15 00:34:17;;;;;;;;;;;;;;;;;;378150;26;768;-84
2024/04/15 00:34:27;;;;;;;;;;;;;;;;;;376215;26;1007;-84
2024/04/15 00:34:37;;;;;;;;;;;;;;;;;;375814;26;781;-83
2024/04/15 00:34:49;;;;;;;;;;;;;;;;;;376121;26;1019;-85
2024/04/15 00:35:00;;;;;;;;;;;;;;;;;;375964;26;889;-84
2024/04/15 00:35:10;;;;;;;;;;;;;;;;;;376162;26;995;-84
2024/04/15 00:35:21;;;;;;;;;;;;;;;;;;375949;26;1003;-84
2024/04/15 00:35:31;;;;;;;;;;;;;;;;;;376096;26;1038;-84
2024/04/15 00:35:42;;;;;;;;;;;;;;;;;;373278;26;1285;-84
2024/04/15 00:35:52;;;;;;;;;;;;;;;;;;373668;26;737;-84
2024/04/15 00:36:03;;;;;;;;;;;;;;;;;;373566;26;1053;-84
2024/04/15 00:36:13;;;;;;;;;;;;;;;;;;373546;26;1438;-85
2024/04/15 00:36:23;;;;;;;;;;;;;;;;;;370859;26;1230;-84
2024/04/15 00:36:35;;;;;;;;;;;;;;;;;;373558;26;1281;-84
2024/04/15 00:36:45;;;;;;;;;;;;;;;;;;373366;26;1043;-85
2024/04/15 00:36:55;;;;;;;;;;;;;;;;;;373713;26;908;-84
2024/04/15 00:37:06;;;;;;;;;;;;;;;;;;373601;26;702;-84
2024/04/15 00:37:16;;;;;;;;;;;;;;;;;;371092;26;1377;-84
2024/04/15 00:37:26;;;;;;;;;;;;;;;;;;373517;26;1019;-83
2024/04/15 00:37:37;;;;;;;;;;;;;;;;;;373753;26;912;-84
2024/04/15 00:37:47;;;;;;;;;;;;;;;;;;375993;26;776;-84
2024/04/15 00:37:58;;;;;;;;;;;;;;;;;;376181;26;1030;-84
2024/04/15 00:38:08;;;;;;;;;;;;;;;;;;375800;26;1225;-84
2024/04/15 00:38:18;;;;;;;;;;;;;;;;;;376162;26;1046;-84
2024/04/15 00:38:29;;;;;;;;;;;;;;;;;;373417;26;1054;-84
2024/04/15 00:38:39;;;;;;;;;;;;;;;;;;373694;26;1015;-84
2024/04/15 00:38:49;;;;;;;;;;;;;;;;;;373376;26;1023;-84
2024/04/15 00:38:59;;;;;;;;;;;;;;;;;;373258;26;1251;-84
2024/04/15 00:39:10;;;;;;;;;;;;;;;;;;373416;26;1066;-84
2024/04/15 00:39:20;;;;;;;;;;;;;;;;;;373689;26;1047;-84
2024/04/15 00:39:30;;;;;;;;;;;;;;;;;;373355;26;1458;-84
2024/04/15 00:39:40;;;;;;;;;;;;;;;;;;371214;26;962;-84
2024/04/15 00:39:52;;;;;;;;;;;;;;;;;;371045;26;1003;-84
2024/04/15 00:40:03;;;;;;;;;;;;;;;;;;373714;26;1018;-84
2024/04/15 00:40:13;;;;;;;;;;;;;;;;;;373455;26;1027;-84
2024/04/15 00:40:23;;;;;;;;;;;;;;;;;;371057;26;1409;-84
2024/04/15 00:40:33;;;;;;;;;;;;;;;;;;373123;26;1111;-85
2024/04/15 00:40:43;;;;;;;;;;;;;;;;;;373516;26;1109;-84
2024/04/15 00:40:54;;;;;;;;;;;;;;;;;;373417;26;1043;-84
2024/04/15 00:41:04;;;;;;;;;;;;;;;;;;373559;26;1011;-85
2024/04/15 00:41:14;;;;;;;;;;;;;;;;;;373372;26;1082;-84
2024/04/15 00:41:24;;;;;;;;;;;;;;;;;;372915;26;1539;-84
2024/04/15 00:41:35;;;;;;;;;;;;;;;;;;375950;26;1108;-84
2024/04/15 00:41:45;;;;;;;;;;;;;;;;;;378524;26;1353;-84
2024/04/15 00:41:55;;;;;;;;;;;;;;;;;;376019;26;995;-84
2024/04/15 00:42:05;;;;;;;;;;;;;;;;;;373512;26;1297;-84
2024/04/15 00:42:16;;;;;;;;;;;;;;;;;;370919;26;1277;-84
2024/04/15 00:42:26;;;;;;;;;;;;;;;;;;373423;26;1206;-84
2024/04/15 00:42:36;;;;;;;;;;;;;;;;;;373700;26;991;-85
2024/04/15 00:42:46;;;;;;;;;;;;;;;;;;368591;26;790;-84
2024/04/15 00:42:56;;;;;;;;;;;;;;;;;;368732;26;1004;-84
2024/04/15 00:43:07;;;;;;;;;;;;;;;;;;368502;26;832;-84
2024/04/15 00:43:18;;;;;;;;;;;;;;;;;;373493;26;1257;-84
2024/04/15 00:43:28;;;;;;;;;;;;;;;;;;375824;26;1353;-84
2024/04/15 00:43:38;;;;;;;;;;;;;;;;;;376066;26;1825;-84
2024/04/15 00:43:48;;;;;;;;;;;;;;;;;;374181;26;1370;-84
2024/04/15 00:43:58;;;;;;;;;;;;;;;;;;376211;26;1008;-84
2024/04/15 00:44:09;;;;;;;;;;;;;;;;;;375855;26;812;-84
2024/04/15 00:44:19;;;;;;;;;;;;;;;;;;373672;26;943;-84
2024/04/15 00:44:33;;;;;;;;;;;;;;;;;;373421;26;1011;-84
2024/04/15 00:44:43;;;;;;;;;;;;;;;;;;373553;26;936;-84
2024/04/15 00:44:53;;;;;;;;;;;;;;;;;;373572;26;943;-84
2024/04/15 00:45:18;;;;;;;;;;;;;;;;;;373506;26;999;-84
2024/04/15 00:45:32;;;;;;;;;;;;;;;;;;375161;26;1178;-84
2024/04/15 00:45:42;;;;;;;;;;;;;;;;;;376192;26;979;-84
2024/04/15 00:45:52;;;;;;;;;;;;;;;;;;372740;26;1878;-84
2024/04/15 00:46:03;;;;;;;;;;;;;;;;;;371136;26;1323;-84
2024/04/15 00:46:13;;;;;;;;;;;;;;;;;;371238;26;781;-84
2024/04/15 00:46:24;;;;;;;;;;;;;;;;;;373579;26;1417;-84
2024/04/15 00:46:34;;;;;;;;;;;;;;;;;;373473;26;1031;-84
2024/04/15 00:46:45;;;;;;;;;;;;;;;;;;371193;26;1051;-84
2024/04/15 00:46:55;;;;;;;;;;;;;;;;;;371015;26;916;-84
2024/04/15 00:47:05;;;;;;;;;;;;;;;;;;371948;26;1351;-84
2024/04/15 00:47:16;;;;;;;;;;;;;;;;;;373075;26;1043;-84
2024/04/15 00:47:26;;;;;;;;;;;;;;;;;;373327;26;1354;-85
2024/04/15 00:47:37;;;;;;;;;;;;;;;;;;373382;26;1062;-84
2024/04/15 00:47:47;;;;;;;;;;;;;;;;;;371276;26;904;-84
2024/04/15 00:47:57;;;;;;;;;;;;;;;;;;371770;26;919;-84
2024/04/15 00:48:12;;;;;;;;;;;;;;;;;;373485;26;1185;-84
2024/04/15 00:48:23;;;;;;;;;;;;;;;;;;372956;26;793;-84
2024/04/15 00:48:33;;;;;;;;;;;;;;;;;;371090;26;1474;-84
2024/04/15 00:48:43;;;;;;;;;;;;;;;;;;373263;26;1287;-84
2024/04/15 00:48:55;;;;;;;;;;;;;;;;;;371192;26;912;-84
2024/04/15 00:49:05;;;;;;;;;;;;;;;;;;371091;26;1012;-84
2024/04/15 00:49:15;;;;;;;;;;;;;;;;;;373543;26;1015;-84
2024/04/15 00:49:25;;;;;;;;;;;;;;;;;;373472;26;821;-84
2024/04/15 00:49:37;;;;;;;;;;;;;;;;;;373625;26;996;-84
2024/04/15 00:49:48;;;;;;;;;;;;;;;;;;373622;26;995;-85
2024/04/15 00:49:59;;;;;;;;;;;;;;;;;;373433;26;778;-84
2024/04/15 00:50:09;;;;;;;;;;;;;;;;;;373490;26;1307;-84
2024/04/15 00:50:19;;;;;;;;;;;;;;;;;;373373;26;1245;-84
2024/04/15 00:50:30;;;;;;;;;;;;;;;;;;375995;26;955;-84
2024/04/15 00:50:42;;;;;;;;;;;;;;;;;;373533;26;797;-84
2024/04/15 00:50:52;;;;;;;;;;;;;;;;;;370990;26;1186;-84
2024/04/15 00:51:02;;;;;;;;;;;;;;;;;;371126;26;798;-84
2024/04/15 00:51:14;;;;;;;;;;;;;;;;;;371229;26;1147;-84
2024/04/15 00:51:25;;;;;;;;;;;;;;;;;;368518;26;1055;-85
2024/04/15 00:51:37;;;;;;;;;;;;;;;;;;371124;26;1015;-84
2024/04/15 00:51:48;;;;;;;;;;;;;;;;;;371044;26;1020;-85
2024/04/15 00:51:58;;;;;;;;;;;;;;;;;;371091;26;1192;-84
2024/04/15 00:52:09;;;;;;;;;;;;;;;;;;373283;26;1260;-84
2024/04/15 00:52:19;;;;;;;;;;;;;;;;;;373548;26;1426;-84
2024/04/15 00:52:29;;;;;;;;;;;;;;;;;;376054;26;824;-84
2024/04/15 00:52:40;;;;;;;;;;;;;;;;;;373566;26;1189;-84
2024/04/15 00:52:51;;;;;;;;;;;;;;;;;;373383;26;825;-84
2024/04/15 00:53:02;;;;;;;;;;;;;;;;;;375953;26;1319;-84
2024/04/15 00:53:13;;;;;;;;;;;;;;;;;;373382;26;991;-84
2024/04/15 00:53:23;;;;;;;;;;;;;;;;;;373648;26;1023;-84
2024/04/15 00:53:35;;;;;;;;;;;;;;;;;;370408;26;1451;-84
2024/04/15 00:53:45;;;;;;;;;;;;;;;;;;371074;26;1351;-84
2024/04/15 00:53:57;;;;;;;;;;;;;;;;;;373443;26;892;-84
2024/04/15 00:54:09;;;;;;;;;;;;;;;;;;373695;26;928;-84
2024/04/15 00:54:20;;;;;;;;;;;;;;;;;;370939;26;1321;-85
2024/04/15 00:54:31;;;;;;;;;;;;;;;;;;373771;26;801;-84
2024/04/15 00:54:44;;;;;;;;;;;;;;;;;;371164;26;1274;-83
2024/04/15 00:54:55;;;;;;;;;;;;;;;;;;373524;26;908;-84
2024/04/15 00:55:05;;;;;;;;;;;;;;;;;;373605;26;1222;-84
2024/04/15 00:55:16;;;;;;;;;;;;;;;;;;373384;26;1170;-84
2024/04/15 00:55:26;;;;;;;;;;;;;;;;;;372941;26;1234;-85
2024/04/15 00:55:37;;;;;;;;;;;;;;;;;;373250;26;1205;-84
2024/04/15 00:55:53;;;;;;;;;;;;;;;;;;371246;26;825;-85
2024/04/15 00:56:04;;;;;;;;;;;;;;;;;;371061;26;1545;-84
2024/04/15 00:56:14;;;;;;;;;;;;;;;;;;371204;26;810;-84
2024/04/15 00:56:25;;;;;;;;;;;;;;;;;;370973;26;1090;-85
2024/04/15 00:56:35;;;;;;;;;;;;;;;;;;371306;26;967;-84
2024/04/15 00:56:45;;;;;;;;;;;;;;;;;;373349;26;1008;-84
2024/04/15 00:56:56;;;;;;;;;;;;;;;;;;372919;26;1292;-84
2024/04/15 00:57:06;;;;;;;;;;;;;;;;;;373430;26;1047;-83
2024/04/15 00:57:16;;;;;;;;;;;;;;;;;;373715;26;1020;-84
2024/04/15 00:57:27;;;;;;;;;;;;;;;;;;373493;26;904;-84
2024/04/15 00:57:39;;;;;;;;;;;;;;;;;;375960;26;1066;-84
2024/04/15 00:57:50;;;;;;;;;;;;;;;;;;373442;26;1066;-85
2024/04/15 00:58:01;;;;;;;;;;;;;;;;;;378564;26;1383;-84
2024/04/15 00:58:12;;;;;;;;;;;;;;;;;;381074;26;1066;-84
2024/04/15 00:58:23;;;;;;;;;;;;;;;;;;378385;26;1343;-84
2024/04/15 00:58:34;;;;;;;;;;;;;;;;;;375923;26;1467;-85
2024/04/15 00:58:44;;;;;;;;;;;;;;;;;;375919;26;991;-84
2024/04/15 00:58:55;;;;;;;;;;;;;;;;;;373539;26;1283;-84
2024/04/15 00:59:06;;;;;;;;;;;;;;;;;;370998;26;1012;-84
2024/04/15 00:59:16;;;;;;;;;;;;;;;;;;371254;26;818;-84
2024/04/15 00:59:27;;;;;;;;;;;;;;;;;;370989;26;856;-84
2024/04/15 00:59:38;;;;;;;;;;;;;;;;;;371055;26;1089;-84
2024/04/15 00:59:48;;;;;;;;;;;;;;;;;;373253;26;1225;-84
2024/04/15 00:59:59;;;;;;;;;;;;;;;;;;376073;26;1016;-84
2024/04/15 01:00:14;;;;;;;;;;;;;;;;;;375339;26;1329;-85
2024/04/15 01:00:24;;;;;;;;;;;;;;;;;;376192;26;907;-84
2024/04/15 01:00:35;;;;;;;;;;;;;;;;;;370808;26;1354;-84
2024/04/15 01:00:45;;;;;;;;;;;;;;;;;;372529;26;2048;-84
2024/04/15 01:00:57;;;;;;;;;;;;;;;;;;375815;26;1289;-84
2024/04/15 01:01:07;;;;;;;;;;;;;;;;;;376107;26;892;-84
2024/04/15 01:01:18;;;;;;;;;;;;;;;;;;373427;26;1059;-84
2024/04/15 01:01:28;;;;;;;;;;;;;;;;;;373626;26;1003;-85
2024/04/15 01:01:39;;;;;;;;;;;;;;;;;;372911;26;1279;-84
2024/04/15 01:01:50;;;;;;;;;;;;;;;;;;371180;26;905;-84
2024/04/15 01:02:00;;;;;;;;;;;;;;;;;;370988;26;995;-84
2024/04/15 01:02:11;;;;;;;;;;;;;;;;;;371173;26;909;-84
2024/04/15 01:02:21;;;;;;;;;;;;;;;;;;370784;26;1027;-84
2024/04/15 01:02:31;;;;;;;;;;;;;;;;;;368589;26;786;-83
2024/04/15 01:02:45;;;;;;;;;;;;;;;;;;368794;26;928;-84
2024/04/15 01:02:55;;;;;;;;;;;;;;;;;;368772;26;803;-84
2024/04/15 01:03:07;;;;;;;;;;;;;;;;;;371073;26;1536;-84
2024/04/15 01:03:17;;;;;;;;;;;;;;;;;;372759;26;1565;-84
2024/04/15 01:03:27;;;;;;;;;;;;;;;;;;376033;26;1162;-85
2024/04/15 01:03:38;;;;;;;;;;;;;;;;;;373305;26;1864;-84
2024/04/15 01:03:49;;;;;;;;;;;;;;;;;;373583;26;1028;-85
2024/04/15 01:03:59;;;;;;;;;;;;;;;;;;375775;26;1266;-84
2024/04/15 01:04:09;;;;;;;;;;;;;;;;;;376063;26;984;-84
2024/04/15 01:04:20;;;;;;;;;;;;;;;;;;378396;26;1042;-84
2024/04/15 01:04:30;;;;;;;;;;;;;;;;;;378672;26;991;-84
2024/04/15 01:04:40;;;;;;;;;;;;;;;;;;375939;26;999;-84
2024/04/15 01:04:51;;;;;;;;;;;;;;;;;;371128;26;1358;-85
2024/04/15 01:05:02;;;;;;;;;;;;;;;;;;373091;26;1379;-84
2024/04/15 01:05:12;;;;;;;;;;;;;;;;;;368823;26;1324;-84
2024/04/15 01:05:23;;;;;;;;;;;;;;;;;;373371;26;1302;-84
2024/04/15 01:05:33;;;;;;;;;;;;;;;;;;374836;26;1312;-84
2024/04/15 01:05:44;;;;;;;;;;;;;;;;;;373497;26;1334;-84
2024/04/15 01:05:54;;;;;;;;;;;;;;;;;;371042;26;928;-84
2024/04/15 01:06:05;;;;;;;;;;;;;;;;;;373440;26;1177;-85
2024/04/15 01:06:16;;;;;;;;;;;;;;;;;;371218;26;1012;-84
2024/04/15 01:06:27;;;;;;;;;;;;;;;;;;370987;26;1086;-83
2024/04/15 01:06:37;;;;;;;;;;;;;;;;;;371086;26;1177;-84
2024/04/15 01:06:48;;;;;;;;;;;;;;;;;;370941;26;920;-84
2024/04/15 01:06:58;;;;;;;;;;;;;;;;;;368727;26;1204;-85
2024/04/15 01:07:08;;;;;;;;;;;;;;;;;;368550;26;1051;-84
2024/04/15 01:07:21;;;;;;;;;;;;;;;;;;368725;26;1241;-84
2024/04/15 01:07:34;;;;;;;;;;;;;;;;;;368567;26;1059;-85
2024/04/15 01:07:45;;;;;;;;;;;;;;;;;;368779;26;1039;-85
2024/04/15 01:07:55;;;;;;;;;;;;;;;;;;368488;26;1261;-84
2024/04/15 01:08:05;;;;;;;;;;;;;;;;;;368739;26;1000;-84
2024/04/15 01:08:16;;;;;;;;;;;;;;;;;;370961;26;1432;-84
2024/04/15 01:08:26;;;;;;;;;;;;;;;;;;371204;26;1134;-85
2024/04/15 01:08:37;;;;;;;;;;;;;;;;;;371017;26;818;-84
2024/04/15 01:08:47;;;;;;;;;;;;;;;;;;368795;26;1064;-84
2024/04/15 01:08:57;;;;;;;;;;;;;;;;;;368680;26;1079;-84
2024/04/15 01:09:07;;;;;;;;;;;;;;;;;;371162;26;838;-84
2024/04/15 01:09:18;;;;;;;;;;;;;;;;;;373412;26;1066;-84
2024/04/15 01:09:28;;;;;;;;;;;;;;;;;;373148;26;1040;-84
2024/04/15 01:09:38;;;;;;;;;;;;;;;;;;373249;26;1160;-85
2024/04/15 01:09:48;;;;;;;;;;;;;;;;;;373392;26;1297;-85
2024/04/15 01:09:58;;;;;;;;;;;;;;;;;;372846;26;1912;-85
2024/04/15 01:10:09;;;;;;;;;;;;;;;;;;372006;26;1511;-84
2024/04/15 01:10:19;;;;;;;;;;;;;;;;;;373197;26;1898;-84
2024/04/15 01:10:30;;;;;;;;;;;;;;;;;;373648;26;1011;-84
2024/04/15 01:10:40;;;;;;;;;;;;;;;;;;373374;26;789;-84
2024/04/15 01:10:50;;;;;;;;;;;;;;;;;;370033;26;1553;-84
2024/04/15 01:11:00;;;;;;;;;;;;;;;;;;366100;27;1373;-85
2024/04/15 01:11:12;;;;;;;;;;;;;;;;;;366399;27;1001;-84
2024/04/15 01:11:23;;;;;;;;;;;;;;;;;;366653;26;1271;-85
2024/04/15 01:11:33;;;;;;;;;;;;;;;;;;371245;26;1059;-84
2024/04/15 01:11:43;;;;;;;;;;;;;;;;;;370929;26;1000;-84
2024/04/15 01:11:54;;;;;;;;;;;;;;;;;;371194;26;849;-85
2024/04/15 01:12:04;;;;;;;;;;;;;;;;;;370735;26;1252;-84
2024/04/15 01:12:14;;;;;;;;;;;;;;;;;;371119;26;892;-84
2024/04/15 01:12:24;;;;;;;;;;;;;;;;;;373407;26;1011;-84
2024/04/15 01:12:35;;;;;;;;;;;;;;;;;;371215;26;1072;-85
2024/04/15 01:12:45;;;;;;;;;;;;;;;;;;370995;26;1004;-84
2024/04/15 01:12:55;;;;;;;;;;;;;;;;;;371192;26;1032;-84
2024/04/15 01:13:05;;;;;;;;;;;;;;;;;;370226;26;1350;-84
2024/04/15 01:13:16;;;;;;;;;;;;;;;;;;368438;26;1561;-85
2024/04/15 01:13:26;;;;;;;;;;;;;;;;;;366237;27;840;-84
2024/04/15 01:13:36;;;;;;;;;;;;;;;;;;368598;26;1175;-85
2024/04/15 01:13:46;;;;;;;;;;;;;;;;;;368714;26;766;-84
2024/04/15 01:13:57;;;;;;;;;;;;;;;;;;368706;26;1246;-84
2024/04/15 01:14:07;;;;;;;;;;;;;;;;;;371133;26;939;-84
2024/04/15 01:14:18;;;;;;;;;;;;;;;;;;370931;26;1011;-84
2024/04/15 01:14:28;;;;;;;;;;;;;;;;;;371659;26;996;-85
2024/04/15 01:14:38;;;;;;;;;;;;;;;;;;372437;26;1369;-84
2024/04/15 01:14:48;;;;;;;;;;;;;;;;;;376101;26;857;-84
2024/04/15 01:14:58;;;;;;;;;;;;;;;;;;370888;26;1217;-84
2024/04/15 01:15:09;;;;;;;;;;;;;;;;;;376111;26;920;-85
2024/04/15 01:15:19;;;;;;;;;;;;;;;;;;375930;26;1004;-84